AFR4125 TNCM-TFFF
Flight info
| Callsign | AFR4125 |
|---|---|
| Flight time | 0h 43m |
| Altitude | 31000 |
| Route | MODOR2 ELOPO UB520 ANU UA312 PPR A312 DOM DOM2X |
| Aircraft | A320/M-SDE3FGHIRWY/LB1 |
Departure
| Time | 2026-04-30 19:37 |
|---|---|
| Airport | Princess Juliana International Airport (TNCM) |
Arrival
| Time | 2026-04-30 20:20 |
|---|---|
| Airport | Martinique Aimé Césaire International Airport (TFFF) |
| Time | Latitude | Longitude | Altitude | Speed | Heading |
|---|---|---|---|---|---|
| 2026-04-30 19:17 | 18.04345 | -63.11297 | 29 ft | 0 kts | 349° |
| 2026-04-30 19:26 | 18.04339 | -63.11296 | 29 ft | 2 kts | 349° |
| 2026-04-30 19:26 | 18.04302 | -63.11288 | 29 ft | 3 kts | 6° |
| 2026-04-30 19:26 | 18.04284 | -63.11294 | 29 ft | 3 kts | 25° |
| 2026-04-30 19:27 | 18.04246 | -63.11308 | 29 ft | 3 kts | 26° |
| 2026-04-30 19:27 | 18.04222 | -63.11317 | 29 ft | 0 kts | 11° |
| 2026-04-30 19:30 | 18.04242 | -63.11322 | 29 ft | 2 kts | 320° |
| 2026-04-30 19:30 | 18.04240 | -63.11377 | 29 ft | 6 kts | 260° |
| 2026-04-30 19:31 | 18.04228 | -63.11447 | 29 ft | 6 kts | 259° |
| 2026-04-30 19:31 | 18.04206 | -63.11497 | 29 ft | 8 kts | 233° |
| 2026-04-30 19:31 | 18.04131 | -63.11592 | 28 ft | 14 kts | 231° |
| 2026-04-30 19:32 | 18.04070 | -63.11676 | 28 ft | 14 kts | 239° |
| 2026-04-30 19:32 | 18.04051 | -63.11772 | 27 ft | 13 kts | 263° |
| 2026-04-30 19:32 | 18.04041 | -63.11861 | 28 ft | 11 kts | 261° |
| 2026-04-30 19:32 | 18.04024 | -63.11910 | 28 ft | 10 kts | 239° |
| 2026-04-30 19:33 | 18.03978 | -63.11959 | 28 ft | 9 kts | 205° |
| 2026-04-30 19:33 | 18.03944 | -63.11928 | 28 ft | 7 kts | 92° |
| 2026-04-30 19:33 | 18.03946 | -63.11914 | 27 ft | 0 kts | 80° |
| 2026-04-30 19:36 | 18.03947 | -63.11906 | 28 ft | 7 kts | 80° |
| 2026-04-30 19:36 | 18.03988 | -63.11607 | 28 ft | 79 kts | 82° |
| 2026-04-30 19:36 | 18.04279 | -63.09670 | 425 ft | 156 kts | 82° |
| 2026-04-30 19:37 | 18.04238 | -63.08569 | 1165 ft | 154 kts | 120° |
| 2026-04-30 19:37 | 18.03391 | -63.07914 | 1843 ft | 160 kts | 165° |
| 2026-04-30 19:37 | 18.02296 | -63.07632 | 2459 ft | 163 kts | 165° |
| 2026-04-30 19:37 | 18.01208 | -63.07308 | 3097 ft | 162 kts | 159° |
| 2026-04-30 19:38 | 18.00217 | -63.06697 | 3534 ft | 173 kts | 134° |
| 2026-04-30 19:38 | 17.99473 | -63.05652 | 3929 ft | 187 kts | 125° |
| 2026-04-30 19:38 | 17.98676 | -63.04499 | 4297 ft | 203 kts | 126° |
| 2026-04-30 19:38 | 17.97811 | -63.03210 | 4538 ft | 231 kts | 124° |
| 2026-04-30 19:39 | 17.96863 | -63.01728 | 4866 ft | 257 kts | 123° |
| 2026-04-30 19:39 | 17.95828 | -63.00134 | 5518 ft | 269 kts | 124° |
| 2026-04-30 19:39 | 17.94745 | -62.98507 | 6300 ft | 275 kts | 124° |
| 2026-04-30 19:39 | 17.93620 | -62.96849 | 7059 ft | 282 kts | 124° |
| 2026-04-30 19:40 | 17.92465 | -62.95165 | 7827 ft | 286 kts | 125° |
| 2026-04-30 19:40 | 17.91289 | -62.93462 | 8635 ft | 290 kts | 126° |
| 2026-04-30 19:40 | 17.90095 | -62.91745 | 9478 ft | 292 kts | 126° |
| 2026-04-30 19:40 | 17.88884 | -62.90009 | 10175 ft | 299 kts | 127° |
| 2026-04-30 19:41 | 17.87628 | -62.88203 | 10671 ft | 312 kts | 127° |
| 2026-04-30 19:41 | 17.86326 | -62.86325 | 11183 ft | 324 kts | 127° |
| 2026-04-30 19:41 | 17.84980 | -62.84379 | 11750 ft | 334 kts | 127° |
| 2026-04-30 19:41 | 17.83603 | -62.82382 | 12332 ft | 341 kts | 127° |
| 2026-04-30 19:42 | 17.82182 | -62.80318 | 12643 ft | 359 kts | 127° |
| 2026-04-30 19:42 | 17.80677 | -62.78132 | 12805 ft | 379 kts | 127° |
| 2026-04-30 19:42 | 17.79118 | -62.75864 | 13261 ft | 387 kts | 127° |
| 2026-04-30 19:42 | 17.77529 | -62.73557 | 13836 ft | 392 kts | 127° |
| 2026-04-30 19:43 | 17.75920 | -62.71225 | 14355 ft | 396 kts | 127° |
| 2026-04-30 19:43 | 17.74294 | -62.68875 | 14888 ft | 400 kts | 128° |
| 2026-04-30 19:43 | 17.72652 | -62.66501 | 15416 ft | 404 kts | 128° |
| 2026-04-30 19:44 | 17.69325 | -62.61690 | 16457 ft | 411 kts | 128° |
| 2026-04-30 19:44 | 17.67620 | -62.59224 | 16979 ft | 414 kts | 128° |
| 2026-04-30 19:44 | 17.65922 | -62.56771 | 17481 ft | 417 kts | 128° |
| 2026-04-30 19:44 | 17.64210 | -62.54299 | 17971 ft | 421 kts | 128° |
| 2026-04-30 19:45 | 17.62483 | -62.51809 | 18436 ft | 424 kts | 128° |
| 2026-04-30 19:45 | 17.60743 | -62.49299 | 18866 ft | 427 kts | 129° |
| 2026-04-30 19:45 | 17.58993 | -62.46772 | 19293 ft | 430 kts | 129° |
| 2026-04-30 19:45 | 17.57233 | -62.44227 | 19703 ft | 433 kts | 129° |
| 2026-04-30 19:46 | 17.55463 | -62.41664 | 20127 ft | 435 kts | 129° |
| 2026-04-30 19:46 | 17.53683 | -62.39087 | 20539 ft | 438 kts | 129° |
| 2026-04-30 19:46 | 17.51888 | -62.36493 | 20942 ft | 441 kts | 129° |
| 2026-04-30 19:46 | 17.50080 | -62.33887 | 21337 ft | 444 kts | 130° |
| 2026-04-30 19:47 | 17.48257 | -62.31262 | 21743 ft | 447 kts | 130° |
| 2026-04-30 19:47 | 17.47047 | -62.29518 | 22000 ft | 448 kts | 130° |
| 2026-04-30 19:47 | 17.44583 | -62.25966 | 22521 ft | 452 kts | 130° |
| 2026-04-30 19:47 | 17.42727 | -62.23291 | 22900 ft | 455 kts | 130° |
| 2026-04-30 19:48 | 17.40863 | -62.20606 | 23273 ft | 457 kts | 130° |
| 2026-04-30 19:48 | 17.38987 | -62.17904 | 23611 ft | 460 kts | 130° |
| 2026-04-30 19:48 | 17.37100 | -62.15187 | 23899 ft | 463 kts | 130° |
| 2026-04-30 19:48 | 17.35199 | -62.12453 | 24182 ft | 466 kts | 130° |
| 2026-04-30 19:49 | 17.33284 | -62.09706 | 24447 ft | 468 kts | 130° |
| 2026-04-30 19:49 | 17.29424 | -62.04163 | 25000 ft | 474 kts | 130° |
| 2026-04-30 19:49 | 17.27479 | -62.01368 | 25276 ft | 477 kts | 130° |
| 2026-04-30 19:50 | 17.25519 | -61.98554 | 25553 ft | 480 kts | 130° |
| 2026-04-30 19:50 | 17.23543 | -61.95728 | 25835 ft | 482 kts | 130° |
| 2026-04-30 19:50 | 17.21556 | -61.92889 | 26101 ft | 485 kts | 130° |
| 2026-04-30 19:50 | 17.19561 | -61.90033 | 26366 ft | 488 kts | 129° |
| 2026-04-30 19:51 | 17.17556 | -61.87158 | 26625 ft | 491 kts | 129° |
| 2026-04-30 19:51 | 17.15426 | -61.84375 | 26872 ft | 490 kts | 137° |
| 2026-04-30 19:51 | 17.12941 | -61.81960 | 27127 ft | 487 kts | 146° |
| 2026-04-30 19:51 | 17.10149 | -61.79972 | 27384 ft | 484 kts | 154° |
| 2026-04-30 19:52 | 17.07128 | -61.78450 | 27623 ft | 481 kts | 163° |
| 2026-04-30 19:52 | 17.03916 | -61.77375 | 27864 ft | 480 kts | 168° |
| 2026-04-30 19:52 | 17.00683 | -61.76403 | 28116 ft | 483 kts | 168° |
| 2026-04-30 19:52 | 16.97442 | -61.75428 | 28367 ft | 485 kts | 168° |
| 2026-04-30 19:53 | 16.94202 | -61.74449 | 28715 ft | 485 kts | 168° |
| 2026-04-30 19:53 | 16.90958 | -61.73469 | 29068 ft | 485 kts | 168° |
| 2026-04-30 19:53 | 16.87716 | -61.72488 | 29420 ft | 485 kts | 168° |
| 2026-04-30 19:53 | 16.84472 | -61.71503 | 29775 ft | 485 kts | 168° |
| 2026-04-30 19:54 | 16.81231 | -61.70520 | 30112 ft | 486 kts | 168° |
| 2026-04-30 19:54 | 16.77986 | -61.69537 | 30424 ft | 485 kts | 168° |
| 2026-04-30 19:54 | 16.74740 | -61.68554 | 30739 ft | 485 kts | 169° |
| 2026-04-30 19:54 | 16.71504 | -61.67577 | 30909 ft | 485 kts | 169° |
| 2026-04-30 19:55 | 16.65021 | -61.65620 | 30945 ft | 485 kts | 169° |
| 2026-04-30 19:55 | 16.58539 | -61.63668 | 30940 ft | 484 kts | 169° |
| 2026-04-30 19:56 | 16.52070 | -61.61718 | 30941 ft | 484 kts | 168° |
| 2026-04-30 19:56 | 16.45606 | -61.59766 | 30944 ft | 483 kts | 168° |
| 2026-04-30 19:57 | 16.39146 | -61.57819 | 30941 ft | 483 kts | 168° |
| 2026-04-30 19:57 | 16.32696 | -61.55879 | 30940 ft | 482 kts | 168° |
| 2026-04-30 19:58 | 16.26251 | -61.53941 | 30944 ft | 482 kts | 168° |
| 2026-04-30 19:58 | 16.19844 | -61.51846 | 30948 ft | 483 kts | 166° |
| 2026-04-30 19:59 | 16.13493 | -61.49592 | 30951 ft | 482 kts | 165° |
| 2026-04-30 20:00 | 16.03984 | -61.46254 | 30947 ft | 480 kts | 166° |
| 2026-04-30 20:00 | 15.97599 | -61.44080 | 30944 ft | 478 kts | 166° |
| 2026-04-30 20:00 | 15.94450 | -61.43013 | 30402 ft | 475 kts | 166° |
| 2026-04-30 20:01 | 15.88179 | -61.40882 | 29444 ft | 474 kts | 165° |
| 2026-04-30 20:01 | 15.85036 | -61.39811 | 28219 ft | 479 kts | 165° |
| 2026-04-30 20:01 | 15.81848 | -61.38720 | 26957 ft | 485 kts | 165° |
| 2026-04-30 20:02 | 15.75375 | -61.36497 | 24567 ft | 494 kts | 165° |
| 2026-04-30 20:02 | 15.72120 | -61.35381 | 23646 ft | 491 kts | 164° |
| 2026-04-30 20:03 | 15.65714 | -61.33185 | 21897 ft | 479 kts | 164° |
| 2026-04-30 20:03 | 15.62573 | -61.32109 | 21079 ft | 473 kts | 164° |
| 2026-04-30 20:03 | 15.59474 | -61.31050 | 20364 ft | 465 kts | 163° |
| 2026-04-30 20:03 | 15.56379 | -61.30112 | 19574 ft | 459 kts | 169° |
| 2026-04-30 20:04 | 15.53242 | -61.29636 | 18774 ft | 454 kts | 177° |
| 2026-04-30 20:04 | 15.50102 | -61.29608 | 18055 ft | 448 kts | 181° |
| 2026-04-30 20:04 | 15.47010 | -61.29646 | 17369 ft | 441 kts | 181° |
| 2026-04-30 20:05 | 15.40965 | -61.29717 | 16147 ft | 427 kts | 181° |
| 2026-04-30 20:05 | 15.38023 | -61.29746 | 15576 ft | 420 kts | 181° |
| 2026-04-30 20:05 | 15.32278 | -61.29799 | 14486 ft | 407 kts | 180° |
| 2026-04-30 20:06 | 15.30410 | -61.29819 | 14127 ft | 403 kts | 180° |
| 2026-04-30 20:06 | 15.26682 | -61.29862 | 13337 ft | 397 kts | 180° |
| 2026-04-30 20:06 | 15.24822 | -61.29884 | 12943 ft | 394 kts | 180° |
| 2026-04-30 20:06 | 15.22093 | -61.29912 | 12347 ft | 390 kts | 180° |
| 2026-04-30 20:07 | 15.19398 | -61.29937 | 11769 ft | 386 kts | 180° |
| 2026-04-30 20:07 | 15.16725 | -61.29962 | 11209 ft | 381 kts | 180° |
| 2026-04-30 20:07 | 15.11639 | -61.30014 | 10949 ft | 350 kts | 180° |
| 2026-04-30 20:08 | 15.09253 | -61.30041 | 10831 ft | 336 kts | 180° |
| 2026-04-30 20:08 | 15.06960 | -61.30067 | 10715 ft | 324 kts | 180° |
| 2026-04-30 20:08 | 15.04748 | -61.30091 | 10594 ft | 312 kts | 180° |
| 2026-04-30 20:08 | 15.02610 | -61.30112 | 10423 ft | 304 kts | 180° |
| 2026-04-30 20:09 | 15.00512 | -61.30134 | 10203 ft | 298 kts | 180° |
| 2026-04-30 20:09 | 14.98464 | -61.30159 | 10023 ft | 291 kts | 180° |
| 2026-04-30 20:09 | 14.97004 | -61.30175 | 9893 ft | 286 kts | 180° |
| 2026-04-30 20:10 | 14.94355 | -61.30216 | 9600 ft | 279 kts | 180° |
| 2026-04-30 20:10 | 14.92392 | -61.30243 | 9202 ft | 285 kts | 179° |
| 2026-04-30 20:10 | 14.92363 | -61.30243 | 9194 ft | 285 kts | 179° |
| 2026-04-30 20:11 | 14.91390 | -61.30269 | 8974 ft | 288 kts | 180° |
| 2026-04-30 20:11 | 14.89371 | -61.30306 | 8442 ft | 293 kts | 179° |
| 2026-04-30 20:12 | 14.85287 | -61.30305 | 7613 ft | 292 kts | 178° |
| 2026-04-30 20:12 | 14.83278 | -61.30180 | 7279 ft | 287 kts | 167° |
| 2026-04-30 20:12 | 14.81398 | -61.29583 | 6979 ft | 280 kts | 158° |
| 2026-04-30 20:13 | 14.79572 | -61.28907 | 6623 ft | 278 kts | 159° |
| 2026-04-30 20:13 | 14.77751 | -61.28253 | 6260 ft | 276 kts | 159° |
| 2026-04-30 20:13 | 14.75921 | -61.27612 | 5747 ft | 280 kts | 160° |
| 2026-04-30 20:13 | 14.74043 | -61.26972 | 5317 ft | 280 kts | 160° |
| 2026-04-30 20:14 | 14.72190 | -61.26353 | 4911 ft | 279 kts | 160° |
| 2026-04-30 20:14 | 14.70346 | -61.25748 | 4503 ft | 277 kts | 161° |
| 2026-04-30 20:14 | 14.68525 | -61.25103 | 4076 ft | 276 kts | 156° |
| 2026-04-30 20:14 | 14.66829 | -61.24244 | 3795 ft | 267 kts | 144° |
| 2026-04-30 20:15 | 14.65472 | -61.23007 | 3607 ft | 255 kts | 129° |
| 2026-04-30 20:15 | 14.64499 | -61.21528 | 3446 ft | 243 kts | 118° |
| 2026-04-30 20:15 | 14.63700 | -61.20038 | 3329 ft | 232 kts | 118° |
| 2026-04-30 20:15 | 14.62939 | -61.18616 | 3261 ft | 221 kts | 117° |
| 2026-04-30 20:16 | 14.62211 | -61.17265 | 3184 ft | 211 kts | 119° |
| 2026-04-30 20:16 | 14.61394 | -61.16035 | 3143 ft | 205 kts | 126° |
| 2026-04-30 20:16 | 14.60532 | -61.14897 | 3110 ft | 196 kts | 127° |
| 2026-04-30 20:16 | 14.59701 | -61.13823 | 2958 ft | 188 kts | 128° |
| 2026-04-30 20:17 | 14.58923 | -61.12776 | 2716 ft | 179 kts | 122° |
| 2026-04-30 20:17 | 14.58323 | -61.11697 | 2401 ft | 170 kts | 114° |
| 2026-04-30 20:17 | 14.57926 | -61.10600 | 2097 ft | 156 kts | 107° |
| 2026-04-30 20:17 | 14.57721 | -61.09516 | 1723 ft | 152 kts | 96° |
| 2026-04-30 20:18 | 14.57720 | -61.08439 | 1383 ft | 147 kts | 88° |
| 2026-04-30 20:18 | 14.57867 | -61.07419 | 1102 ft | 142 kts | 80° |
| 2026-04-30 20:18 | 14.58066 | -61.06435 | 918 ft | 136 kts | 82° |
| 2026-04-30 20:18 | 14.58224 | -61.05497 | 712 ft | 134 kts | 82° |
| 2026-04-30 20:19 | 14.58377 | -61.04523 | 548 ft | 142 kts | 82° |
| 2026-04-30 20:19 | 14.58554 | -61.03521 | 365 ft | 142 kts | 80° |
| 2026-04-30 20:19 | 14.58729 | -61.02519 | 202 ft | 142 kts | 81° |
| 2026-04-30 20:19 | 14.58901 | -61.01515 | 29 ft | 140 kts | 79° |
| 2026-04-30 20:20 | 14.59050 | -61.00658 | 18 ft | 98 kts | 80° |
| 2026-04-30 20:20 | 14.59134 | -61.00156 | 18 ft | 43 kts | 81° |
| 2026-04-30 20:20 | 14.59189 | -61.00023 | 19 ft | 12 kts | 12° |
| 2026-04-30 20:20 | 14.59257 | -61.00033 | 19 ft | 9 kts | 350° |
| 2026-04-30 20:21 | 14.59316 | -61.00044 | 18 ft | 8 kts | 351° |
| 2026-04-30 20:21 | 14.59351 | -61.00024 | 18 ft | 6 kts | 67° |
| 2026-04-30 20:21 | 14.59368 | -60.99991 | 20 ft | 5 kts | 47° |
| 2026-04-30 20:21 | 14.59394 | -60.99981 | 20 ft | 4 kts | 6° |
| 2026-04-30 20:22 | 14.59429 | -60.99978 | 18 ft | 5 kts | 7° |
| 2026-04-30 20:22 | 14.59449 | -60.99975 | 18 ft | 0 kts | 6° |